Time;durP1;ratioP1;P1;durP2;ratioP2;P2;SDS_P1;SDS_P2;PMS_P1;PMS_P2;Temp;Humidity;BMP_temperature;BMP_pressure;BME280_temperature;BME280_humidity;BME280_pressure;Samples;Min_cycle;Max_cycle;Signal;HPM_P1;HPM_P2
2022/05/25 00:02:54;;;;;;;4.15;0.80;;;9.80;99.90;;;;;;7343353;32;20103;-60
2022/05/25 00:06:56;;;;;;;2.40;0.88;;;9.70;99.90;;;;;;7362901;32;20104;-60
2022/05/25 00:10:57;;;;;;;2.30;0.85;;;9.70;99.90;;;;;;7349007;32;20213;-60
2022/05/25 00:14:59;;;;;;;3.33;0.90;;;9.70;99.90;;;;;;7361529;32;20095;-61
2022/05/25 00:23:21;;;;;;;5.05;1.12;;;9.70;99.90;;;;;;7365511;32;20095;-61
2022/05/25 00:27:23;;;;;;;3.33;0.82;;;9.70;99.90;;;;;;7351010;32;20497;-61
2022/05/25 00:31:25;;;;;;;2.75;0.90;;;9.60;99.90;;;;;;7335647;32;20104;-61
2022/05/25 00:35:29;;;;;;;2.95;0.82;;;9.60;99.90;;;;;;7343741;32;20148;-61
2022/05/25 00:39:31;;;;;;;1.90;0.90;;;9.50;99.90;;;;;;7357805;32;20229;-60
2022/05/25 00:43:33;;;;;;;3.50;0.77;;;9.50;99.90;;;;;;7367291;32;20324;-61
2022/05/25 00:47:37;;;;;;;3.00;0.88;;;9.40;99.90;;;;;;7354306;32;20210;-60
2022/05/25 00:51:48;;;;;;;2.78;0.88;;;9.30;99.90;;;;;;7338976;32;20215;-60
2022/05/25 00:55:50;;;;;;;5.05;1.02;;;9.30;99.90;;;;;;7362695;32;20312;-60
2022/05/25 01:00:09;;;;;;;6.75;1.10;;;9.20;99.90;;;;;;7366407;32;20215;-63
2022/05/25 01:04:12;;;;;;;2.45;1.02;;;9.20;99.90;;;;;;7363339;32;20191;-61
2022/05/25 01:08:14;;;;;;;2.45;0.82;;;9.10;99.90;;;;;;7360283;32;20275;-61
2022/05/25 01:12:43;;;;;;;3.60;0.90;;;9.10;99.90;;;;;;7359746;32;20121;-62
2022/05/25 01:17:16;;;;;;;3.03;0.90;;;9.00;99.90;;;;;;7363743;32;20133;-62
2022/05/25 01:21:46;;;;;;;5.47;1.67;;;9.00;99.90;;;;;;7362532;32;20118;-61
2022/05/25 01:26:10;;;;;;;2.08;1.10;;;8.90;99.90;;;;;;7360164;32;20244;-61
2022/05/25 01:30:30;;;;;;;4.22;1.10;;;8.80;99.90;;;;;;7346075;32;20122;-61
2022/05/25 01:34:43;;;;;;;4.25;1.02;;;8.80;99.90;;;;;;7365768;32;20661;-61
2022/05/25 01:38:49;;;;;;;4.10;1.08;;;8.80;99.90;;;;;;7355680;32;20142;-61
2022/05/25 01:43:00;;;;;;;5.07;1.50;;;8.80;99.90;;;;;;7368583;32;20441;-61
2022/05/25 01:47:05;;;;;;;3.08;1.30;;;8.70;99.90;;;;;;7364909;32;20597;-61
2022/05/25 01:51:13;;;;;;;3.30;1.25;;;8.70;99.90;;;;;;7358348;32;20665;-61
2022/05/25 01:55:24;;;;;;;6.35;1.35;;;8.70;99.90;;;;;;7363030;32;20118;-61
2022/05/25 01:59:26;;;;;;;4.72;1.50;;;8.70;99.90;;;;;;7358548;32;20119;-62
2022/05/25 02:07:56;;;;;;;4.22;1.75;;;8.60;99.90;;;;;;7370929;32;20783;-61
2022/05/25 02:12:25;;;;;;;5.70;1.33;;;8.60;99.90;;;;;;7363713;32;20121;-62
2022/05/25 02:16:27;;;;;;;4.12;1.67;;;8.50;99.90;;;;;;7362960;32;20533;-61
2022/05/25 02:20:41;;;;;;;7.07;1.70;;;8.50;99.90;;;;;;7353461;32;20214;-61
2022/05/25 02:24:52;;;;;;;4.28;1.80;;;8.50;99.90;;;;;;7364780;32;20112;-61
2022/05/25 02:29:19;;;;;;;10.32;2.08;;;8.50;99.90;;;;;;7359998;32;20141;-60
2022/05/25 02:33:28;;;;;;;3.33;1.92;;;8.40;99.90;;;;;;7359491;32;20203;-61
2022/05/25 02:37:32;;;;;;;3.80;1.65;;;8.40;99.90;;;;;;7355013;32;20095;-60
2022/05/25 02:41:40;;;;;;;3.12;2.03;;;8.40;99.90;;;;;;7363327;32;20099;-62
2022/05/25 02:45:42;;;;;;;3.42;1.75;;;8.50;99.90;;;;;;7371107;32;20115;-62
2022/05/25 02:49:44;;;;;;;3.85;1.70;;;8.40;99.90;;;;;;7371073;32;20343;-62
2022/05/25 02:53:47;;;;;;;5.80;2.37;;;8.50;99.90;;;;;;7347898;32;20141;-61
2022/05/25 02:57:49;;;;;;;5.43;1.65;;;8.40;99.90;;;;;;7344628;32;20111;-61
2022/05/25 03:01:50;;;;;;;2.85;2.03;;;8.40;99.90;;;;;;7353467;32;20206;-62
2022/05/25 03:05:52;;;;;;;5.43;2.00;;;8.40;99.90;;;;;;7364522;32;20091;-62
2022/05/25 03:09:54;;;;;;;5.25;2.10;;;8.40;99.90;;;;;;7360374;32;20124;-62
2022/05/25 03:13:55;;;;;;;3.97;2.40;;;8.40;99.90;;;;;;7364728;32;20103;-63
2022/05/25 03:17:57;;;;;;;5.62;2.40;;;8.40;99.90;;;;;;7355041;32;20099;-62
2022/05/25 03:21:59;;;;;;;2.95;2.05;;;8.40;99.90;;;;;;7340596;32;20601;-61
2022/05/25 03:26:01;;;;;;;4.72;2.33;;;8.40;99.90;;;;;;7362489;32;20198;-62
2022/05/25 03:30:05;;;;;;;6.72;2.60;;;8.40;99.90;;;;;;7347664;32;20129;-62
2022/05/25 03:34:06;;;;;;;7.47;2.55;;;8.40;99.90;;;;;;7360788;32;20234;-62
2022/05/25 03:38:08;;;;;;;3.90;2.50;;;8.40;99.90;;;;;;7366059;32;20126;-62
2022/05/25 03:42:13;;;;;;;5.15;2.50;;;8.50;99.90;;;;;;7366902;32;20507;-61
2022/05/25 03:46:15;;;;;;;6.12;2.30;;;8.60;99.90;;;;;;7372886;32;20150;-62
2022/05/25 03:50:20;;;;;;;3.28;2.00;;;8.60;99.90;;;;;;7367307;32;20170;-61
2022/05/25 03:54:21;;;;;;;5.47;2.28;;;8.50;99.90;;;;;;7340817;32;20290;-61
2022/05/25 03:58:23;;;;;;;5.00;2.50;;;8.60;99.90;;;;;;7363039;32;20737;-61
2022/05/25 04:02:25;;;;;;;4.65;2.67;;;8.60;99.90;;;;;;7362944;32;20103;-62
2022/05/25 04:06:27;;;;;;;4.22;2.40;;;8.60;99.90;;;;;;7356229;32;20235;-62
2022/05/25 04:10:29;;;;;;;3.28;2.47;;;8.60;99.90;;;;;;7355615;32;20440;-62
2022/05/25 04:14:30;;;;;;;6.18;2.53;;;8.70;99.90;;;;;;7367945;32;20103;-61
2022/05/25 04:18:32;;;;;;;5.43;2.70;;;8.80;99.90;;;;;;7344080;32;20137;-61
2022/05/25 04:22:35;;;;;;;4.90;2.70;;;8.90;99.90;;;;;;7351496;32;20095;-61
2022/05/25 04:26:37;;;;;;;5.60;2.80;;;8.90;99.90;;;;;;7369302;32;20098;-62
2022/05/25 04:30:39;;;;;;;4.28;2.72;;;9.10;99.90;;;;;;7361862;32;20171;-62
2022/05/25 04:34:41;;;;;;;5.18;2.87;;;9.20;99.90;;;;;;7364390;32;20127;-62
2022/05/25 04:38:42;;;;;;;4.62;2.47;;;9.40;99.90;;;;;;7352809;32;20102;-62
2022/05/25 04:42:45;;;;;;;5.55;3.25;;;9.70;99.90;;;;;;7357849;32;20714;-61
2022/05/25 04:46:48;;;;;;;8.52;3.65;;;10.00;99.90;;;;;;7347778;32;20099;-64
2022/05/25 04:50:51;;;;;;;5.85;3.78;;;10.20;99.90;;;;;;7360355;32;20660;-65
2022/05/25 04:54:53;;;;;;;7.32;4.15;;;10.60;99.90;;;;;;7362007;32;20246;-68
2022/05/25 04:58:55;;;;;;;5.50;3.35;;;11.20;99.90;;;;;;7364453;32;20627;-67
2022/05/25 05:02:57;;;;;;;9.20;3.50;;;12.00;99.90;;;;;;7367924;32;20160;-68
2022/05/25 05:06:58;;;;;;;6.78;2.65;;;12.60;99.90;;;;;;7347812;32;20127;-68
2022/05/25 05:11:12;;;;;;;6.93;2.90;;;13.30;99.90;;;;;;7336735;32;20107;-68
2022/05/25 05:15:14;;;;;;;7.55;2.72;;;14.20;99.90;;;;;;7353275;32;20115;-68
2022/05/25 05:19:15;;;;;;;6.47;2.40;;;14.40;99.90;;;;;;7359295;32;20137;-68
2022/05/25 05:23:17;;;;;;;4.15;2.15;;;14.80;99.90;;;;;;7372115;32;20131;-68
2022/05/25 05:27:19;;;;;;;5.35;2.42;;;14.90;99.90;;;;;;7366177;32;20118;-67
2022/05/25 05:31:20;;;;;;;5.78;2.35;;;15.00;99.90;;;;;;7348262;32;20111;-67
2022/05/25 05:35:22;;;;;;;8.15;2.20;;;15.00;99.90;;;;;;7363550;32;20126;-67
2022/05/25 05:39:27;;;;;;;6.15;2.62;;;15.10;99.90;;;;;;7375333;32;20103;-65
2022/05/25 05:43:29;;;;;;;7.85;2.28;;;15.10;99.90;;;;;;7359793;32;20103;-67
2022/05/25 05:47:37;;;;;;;5.20;2.47;;;15.00;99.90;;;;;;7372132;32;20293;-67
2022/05/25 05:51:40;;;;;;;6.97;2.10;;;15.00;99.90;;;;;;7370328;32;20136;-65
2022/05/25 05:55:44;;;;;;;5.03;2.35;;;14.90;99.90;;;;;;7353912;32;22532;-67
2022/05/25 05:59:46;;;;;;;7.18;2.50;;;14.60;99.90;;;;;;7353495;32;20178;-65
2022/05/25 06:03:48;;;;;;;7.07;2.22;;;14.60;99.90;;;;;;7273599;32;20177;-66
2022/05/25 06:07:50;;;;;;;8.27;2.40;;;14.50;99.90;;;;;;7244272;32;20101;-66
2022/05/25 06:11:52;;;;;;;6.00;2.33;;;14.80;99.90;;;;;;7211999;32;20589;-65
2022/05/25 06:20:14;;;;;;;6.90;2.42;;;16.40;99.90;;;;;;7200936;32;20764;-65
2022/05/25 06:24:16;;;;;;;4.90;2.20;;;17.00;99.90;;;;;;7211155;32;20733;-66
2022/05/25 06:28:18;;;;;;;4.82;2.20;;;17.60;99.90;;;;;;7203999;32;20109;-66
2022/05/25 06:32:22;;;;;;;7.50;2.00;;;18.20;99.90;;;;;;7218042;32;20441;-66
2022/05/25 06:36:27;;;;;;;5.75;2.12;;;18.50;99.90;;;;;;7205421;32;20101;-67
2022/05/25 06:40:30;;;;;;;10.27;2.25;;;19.10;99.90;;;;;;7223968;32;20216;-67
2022/05/25 06:44:32;;;;;;;3.83;1.70;;;19.10;99.90;;;;;;7212142;32;20287;-67
2022/05/25 06:48:34;;;;;;;4.95;1.90;;;19.40;99.90;;;;;;7213160;32;20124;-67
2022/05/25 06:52:36;;;;;;;5.28;2.00;;;19.50;99.90;;;;;;7207455;32;20124;-66
2022/05/25 06:56:37;;;;;;;3.42;1.67;;;19.40;99.90;;;;;;7212736;32;20115;-66
2022/05/25 07:00:39;;;;;;;3.47;1.42;;;19.80;99.90;;;;;;7228014;32;20743;-66
2022/05/25 07:04:41;;;;;;;3.53;1.45;;;19.50;99.90;;;;;;7346026;32;20234;-66
2022/05/25 07:08:42;;;;;;;5.40;1.30;;;19.20;99.90;;;;;;7360135;32;20126;-67
2022/05/25 07:12:44;;;;;;;4.43;1.73;;;18.70;99.90;;;;;;7361269;32;20139;-66
2022/05/25 07:16:46;;;;;;;2.87;1.17;;;18.30;99.90;;;;;;7356381;32;20111;-67
2022/05/25 07:20:48;;;;;;;4.55;1.90;;;18.10;99.90;;;;;;7364507;32;20471;-66
2022/05/25 07:24:49;;;;;;;4.37;1.20;;;18.30;99.90;;;;;;7360710;32;20136;-66
2022/05/25 07:28:51;;;;;;;4.05;1.40;;;18.00;99.90;;;;;;7347966;32;20130;-67
2022/05/25 07:32:53;;;;;;;3.90;1.12;;;17.90;99.90;;;;;;7362014;32;20647;-66
2022/05/25 07:37:04;;;;;;;4.65;1.05;;;17.40;99.90;;;;;;7358544;32;20107;-66
2022/05/25 07:41:07;;;;;;;4.50;1.40;;;17.00;99.90;;;;;;7358251;32;20492;-66
2022/05/25 07:45:09;;;;;;;4.80;1.20;;;16.60;99.90;;;;;;7357477;32;20684;-66
2022/05/25 07:49:11;;;;;;;4.32;1.30;;;16.40;99.90;;;;;;7358691;32;20115;-66
2022/05/25 07:57:36;;;;;;;2.50;1.23;;;16.00;99.90;;;;;;7340765;32;20713;-67
2022/05/25 08:06:02;;;;;;;4.60;0.60;;;15.90;99.90;;;;;;7361389;32;20977;-66
2022/05/25 08:10:17;;;;;;;3.08;0.70;;;16.00;99.90;;;;;;7358552;32;20099;-67
2022/05/25 08:14:18;;;;;;;2.33;0.80;;;16.30;99.90;;;;;;7359074;32;20230;-66
2022/05/25 08:18:20;;;;;;;2.33;0.60;;;16.70;99.90;;;;;;7347004;32;20575;-67
2022/05/25 08:22:22;;;;;;;4.28;0.50;;;17.20;99.90;;;;;;7356595;32;20185;-67
2022/05/25 08:26:23;;;;;;;3.20;0.40;;;17.60;99.90;;;;;;7355715;32;20221;-66
2022/05/25 08:30:26;;;;;;;1.60;0.30;;;18.00;99.90;;;;;;7364517;32;20335;-67
2022/05/25 08:34:28;;;;;;;5.05;0.47;;;18.70;99.90;;;;;;7364418;32;20149;-65
2022/05/25 08:38:30;;;;;;;2.67;0.50;;;19.00;99.90;;;;;;7357188;32;20095;-65
2022/05/25 08:42:40;;;;;;;3.28;0.40;;;19.50;99.90;;;;;;7344575;32;20245;-65
2022/05/25 08:46:42;;;;;;;4.00;0.50;;;19.70;99.40;;;;;;7353457;32;20597;-65
2022/05/25 08:50:50;;;;;;;3.80;0.30;;;19.70;99.90;;;;;;7364277;32;20130;-65
2022/05/25 08:54:51;;;;;;;1.62;0.50;;;19.80;99.80;;;;;;7348639;32;20269;-65
2022/05/25 08:59:02;;;;;;;1.67;0.30;;;19.90;97.50;;;;;;7352238;32;20111;-65
2022/05/25 09:03:35;;;;;;;1.40;0.32;;;20.40;97.30;;;;;;7359961;32;20174;-64
2022/05/25 09:08:13;;;;;;;2.50;0.90;;;20.90;94.00;;;;;;7345417;32;20098;-65
2022/05/25 09:12:27;;;;;;;2.95;0.37;;;21.20;93.90;;;;;;7356667;32;20460;-64
2022/05/25 09:16:32;;;;;;;2.15;0.30;;;21.00;93.60;;;;;;7361121;32;20671;-65
2022/05/25 09:20:40;;;;;;;1.00;0.30;;;21.60;91.80;;;;;;7342995;32;20639;-65
2022/05/25 09:24:42;;;;;;;1.40;0.30;;;21.00;92.00;;;;;;7357344;32;20259;-65
2022/05/25 09:28:47;;;;;;;1.58;0.40;;;21.10;90.40;;;;;;7355565;32;20169;-63
2022/05/25 09:32:52;;;;;;;1.40;0.30;;;21.20;91.40;;;;;;7344643;32;20405;-65
2022/05/25 09:37:08;;;;;;;1.05;0.22;;;20.80;89.60;;;;;;7362270;32;20333;-64
2022/05/25 09:41:19;;;;;;;2.22;0.30;;;20.80;88.50;;;;;;7360940;32;20133;-65
2022/05/25 09:45:21;;;;;;;1.10;0.40;;;20.50;91.60;;;;;;7358577;32;20103;-64
2022/05/25 09:49:35;;;;;;;2.40;0.40;;;20.80;89.40;;;;;;7361950;32;20251;-65
2022/05/25 09:53:43;;;;;;;1.73;0.20;;;21.50;94.40;;;;;;7350828;32;20139;-66
2022/05/25 09:57:55;;;;;;;2.72;0.32;;;21.40;85.80;;;;;;7353771;32;20131;-65
2022/05/25 10:01:57;;;;;;;2.30;0.40;;;22.00;89.30;;;;;;7353702;32;20123;-65
2022/05/25 10:06:01;;;;;;;5.87;0.68;;;21.60;86.00;;;;;;7364895;32;20397;-65
2022/05/25 10:10:07;;;;;;;2.37;0.40;;;20.90;91.00;;;;;;7340732;32;20198;-65
2022/05/25 10:14:33;;;;;;;2.22;0.30;;;21.60;91.50;;;;;;7356650;32;20224;-66
2022/05/25 10:18:41;;;;;;;4.57;0.37;;;21.70;89.20;;;;;;7354802;32;20210;-66
2022/05/25 10:22:46;;;;;;;2.47;0.28;;;21.70;90.10;;;;;;7363731;32;20716;-65
2022/05/25 10:27:00;;;;;;;3.75;0.40;;;21.40;88.90;;;;;;7360646;32;20607;-66
2022/05/25 10:40:02;;;;;;;2.12;0.50;;;21.80;81.60;;;;;;7360042;32;20463;-66
2022/05/25 10:44:22;;;;;;;1.55;0.30;;;21.40;84.80;;;;;;7361820;32;20121;-64
2022/05/25 10:48:53;;;;;;;2.25;0.50;;;20.90;81.50;;;;;;7356907;32;20232;-65
2022/05/25 10:53:14;;;;;;;2.90;0.40;;;20.00;82.80;;;;;;7367383;32;20141;-65
2022/05/25 10:57:37;;;;;;;1.83;0.30;;;20.30;88.90;;;;;;7363336;32;20115;-67
2022/05/25 11:01:48;;;;;;;3.70;0.35;;;21.00;86.00;;;;;;7350400;32;20107;-65
2022/05/25 11:06:21;;;;;;;2.17;0.22;;;20.60;84.40;;;;;;7357170;32;20111;-64
2022/05/25 11:10:35;;;;;;;3.83;0.50;;;20.30;85.20;;;;;;7371574;32;20724;-64
2022/05/25 11:15:13;;;;;;;3.35;0.30;;;20.20;84.70;;;;;;7367394;32;20258;-65
2022/05/25 11:19:24;;;;;;;;;;;19.70;84.10;;;;;;7348301;32;20289;-65
2022/05/25 11:23:51;;;;;;;2.17;0.60;;;19.90;90.10;;;;;;7354905;32;20063;-64
2022/05/25 11:28:26;;;;;;;2.33;0.30;;;20.10;85.70;;;;;;7343024;32;20218;-65
2022/05/25 11:32:52;;;;;;;1.23;0.50;;;20.70;84.70;;;;;;7360507;32;20610;-65
2022/05/25 11:37:37;;;;;;;1.62;0.30;;;20.80;90.00;;;;;;7368599;32;20107;-65
2022/05/25 11:42:34;;;;;;;4.15;0.43;;;21.00;81.90;;;;;;7348814;32;20125;-65
2022/05/25 11:46:48;;;;;;;1.85;0.30;;;20.60;79.10;;;;;;7349274;32;20506;-65
2022/05/25 11:51:23;;;;;;;1.50;0.28;;;20.60;80.00;;;;;;7360500;32;20096;-64
2022/05/25 11:55:53;;;;;;;2.53;0.30;;;20.70;77.60;;;;;;7353458;32;21094;-61
2022/05/25 12:00:05;;;;;;;2.22;0.30;;;20.70;80.20;;;;;;7355920;32;20151;-66
2022/05/25 12:04:32;;;;;;;2.58;0.40;;;20.20;81.00;;;;;;7346302;32;20126;-65
2022/05/25 12:08:54;;;;;;;3.15;0.40;;;20.10;79.70;;;;;;7355565;32;20129;-65
2022/05/25 12:13:17;;;;;;;1.67;0.50;;;20.00;82.30;;;;;;7341023;32;20257;-66
2022/05/25 12:17:30;;;;;;;1.15;0.50;;;19.50;84.80;;;;;;7359087;32;20719;-66
2022/05/25 12:21:57;;;;;;;2.72;0.55;;;19.20;86.60;;;;;;7350310;32;20178;-59
2022/05/25 12:26:05;;;;;;;2.47;0.50;;;19.00;86.30;;;;;;7358703;32;20562;-59
2022/05/25 12:30:17;;;;;;;4.60;0.60;;;19.60;88.00;;;;;;7356267;32;20132;-58
2022/05/25 12:34:32;;;;;;;4.25;0.40;;;20.50;90.50;;;;;;7349839;32;20169;-59
2022/05/25 12:38:35;;;;;;;1.02;0.43;;;20.80;85.40;;;;;;7356197;32;20809;-59
2022/05/25 12:42:45;;;;;;;4.32;0.45;;;20.50;83.00;;;;;;7357941;32;20099;-57
2022/05/25 12:51:36;;;;;;;1.55;0.50;;;20.80;80.70;;;;;;7351877;32;20672;-58
2022/05/25 12:55:38;;;;;;;1.98;0.43;;;20.80;77.30;;;;;;7354808;32;20102;-57
2022/05/25 12:59:41;;;;;;;3.22;0.68;;;20.80;84.80;;;;;;7349554;32;20551;-58
2022/05/25 13:03:45;;;;;;;1.20;0.32;;;21.30;82.10;;;;;;7351432;32;20133;-58
2022/05/25 13:07:47;;;;;;;2.70;0.32;;;21.20;77.20;;;;;;7334513;32;20232;-67
2022/05/25 13:11:51;;;;;;;1.02;0.32;;;20.80;72.70;;;;;;7354289;32;20131;-67
2022/05/25 13:15:59;;;;;;;1.48;0.30;;;20.40;77.10;;;;;;7357164;32;20658;-66
2022/05/25 13:20:06;;;;;;;2.03;0.37;;;20.40;76.30;;;;;;7361627;32;20164;-66
2022/05/25 13:24:32;;;;;;;3.53;0.30;;;20.40;79.50;;;;;;7360300;32;20206;-67
2022/05/25 13:28:44;;;;;;;1.00;0.30;;;20.10;76.70;;;;;;7363665;32;20162;-66
2022/05/25 13:32:50;;;;;;;3.70;0.37;;;20.00;78.60;;;;;;7342390;32;20158;-66
2022/05/25 13:36:57;;;;;;;1.80;0.50;;;19.90;80.30;;;;;;7360418;32;20292;-66
2022/05/25 13:41:07;;;;;;;2.10;0.30;;;20.00;83.40;;;;;;7348836;32;20161;-66
2022/05/25 13:45:18;;;;;;;1.65;0.40;;;20.20;76.30;;;;;;7369866;32;20119;-60
2022/05/25 13:49:23;;;;;;;2.33;0.30;;;19.80;77.50;;;;;;7365282;32;20804;-60
2022/05/25 13:53:33;;;;;;;1.80;0.50;;;20.40;78.50;;;;;;7350366;32;20111;-60
2022/05/25 13:57:44;;;;;;;0.55;0.20;;;20.00;78.00;;;;;;7351417;32;20130;-67
2022/05/25 14:01:46;;;;;;;1.37;0.30;;;19.80;78.90;;;;;;7362904;32;20201;-66
2022/05/25 14:05:56;;;;;;;2.10;0.40;;;20.10;79.80;;;;;;7363968;32;20127;-66
2022/05/25 14:14:34;;;;;;;1.67;0.50;;;19.60;78.30;;;;;;7361138;32;20408;-65
2022/05/25 14:18:41;;;;;;;0.60;0.30;;;19.60;78.10;;;;;;7367749;32;20752;-65
2022/05/25 14:22:43;;;;;;;2.78;0.40;;;19.60;76.20;;;;;;7357778;32;20154;-66
2022/05/25 14:26:52;;;;;;;2.35;0.50;;;19.70;78.90;;;;;;7358440;32;20221;-66
2022/05/25 14:30:54;;;;;;;1.65;0.40;;;20.00;74.70;;;;;;7356459;32;20209;-66
2022/05/25 14:35:04;;;;;;;0.93;0.30;;;19.70;75.80;;;;;;7347605;32;20118;-66
2022/05/25 14:39:13;;;;;;;3.35;0.50;;;19.50;76.40;;;;;;7352882;32;20185;-66
2022/05/25 14:43:42;;;;;;;6.05;0.60;;;19.50;74.40;;;;;;7351259;32;20170;-66
2022/05/25 14:47:50;;;;;;;1.15;0.50;;;19.60;72.80;;;;;;7352085;32;20181;-66
2022/05/25 14:51:52;;;;;;;4.97;0.40;;;19.80;73.00;;;;;;7350729;32;20294;-65
2022/05/25 14:56:01;;;;;;;2.97;0.32;;;20.20;76.80;;;;;;7353275;32;20528;-64
2022/05/25 15:00:04;;;;;;;3.67;0.40;;;20.50;77.10;;;;;;7358750;32;20186;-66
2022/05/25 15:04:11;;;;;;;3.30;0.45;;;20.30;74.40;;;;;;7343283;32;20479;-65
2022/05/25 15:08:23;;;;;;;;;;;20.20;75.40;;;;;;7347587;32;20268;-64
2022/05/25 15:12:30;;;;;;;1.90;0.50;;;19.80;76.10;;;;;;7355778;32;20149;-65
2022/05/25 15:20:53;;;;;;;3.72;0.40;;;19.40;75.10;;;;;;7353844;32;20142;-66
2022/05/25 15:25:11;;;;;;;2.45;0.37;;;19.30;75.80;;;;;;7354825;32;20208;-65
2022/05/25 15:29:21;;;;;;;2.62;0.40;;;19.20;77.00;;;;;;7360240;32;20185;-65
2022/05/25 15:33:37;;;;;;;2.60;0.47;;;19.10;77.10;;;;;;7355240;32;20386;-66
2022/05/25 15:37:39;;;;;;;3.37;0.37;;;19.20;78.40;;;;;;7338066;32;20206;-65
2022/05/25 15:41:45;;;;;;;2.25;0.30;;;19.10;74.90;;;;;;7352808;32;20326;-65
2022/05/25 15:45:48;;;;;;;2.92;0.40;;;19.00;77.90;;;;;;7353533;32;20593;-65
2022/05/25 15:49:50;;;;;;;2.37;0.40;;;19.00;80.00;;;;;;7351762;32;20099;-66
2022/05/25 15:53:52;;;;;;;4.10;0.50;;;19.00;82.10;;;;;;7349179;32;20647;-66
2022/05/25 15:57:54;;;;;;;0.95;0.30;;;19.10;81.20;;;;;;7334057;32;21224;-65
2022/05/25 16:02:00;;;;;;;2.58;0.60;;;19.20;83.20;;;;;;7351881;32;20186;-65
2022/05/25 16:06:03;;;;;;;3.72;0.50;;;19.40;82.10;;;;;;7339667;32;20538;-65
2022/05/25 16:10:06;;;;;;;6.05;0.70;;;19.30;83.20;;;;;;7356574;32;21265;-65
2022/05/25 16:14:08;;;;;;;1.83;0.50;;;19.10;82.60;;;;;;7347459;32;20347;-64
2022/05/25 16:18:09;;;;;;;3.72;0.40;;;18.90;81.30;;;;;;7337074;32;20983;-65
2022/05/25 16:22:12;;;;;;;1.40;0.82;;;18.70;83.10;;;;;;7351201;32;20204;-65
2022/05/25 16:26:18;;;;;;;4.25;0.40;;;18.80;84.30;;;;;;7348395;32;20275;-65
2022/05/25 16:30:20;;;;;;;1.20;0.30;;;18.70;82.30;;;;;;7339537;32;20182;-65
2022/05/25 16:34:23;;;;;;;1.30;0.45;;;18.60;85.30;;;;;;7364252;32;20099;-64
2022/05/25 16:38:25;;;;;;;4.87;0.70;;;18.60;88.90;;;;;;7367510;32;20397;-65
2022/05/25 16:42:27;;;;;;;2.05;0.30;;;18.70;86.10;;;;;;7347177;32;20130;-64
2022/05/25 16:46:29;;;;;;;6.50;1.27;;;18.60;86.50;;;;;;7364525;32;20717;-63
2022/05/25 16:50:33;;;;;;;2.92;1.60;;;18.60;87.50;;;;;;7358448;32;20107;-64
2022/05/25 16:54:35;;;;;;;2.15;1.42;;;18.40;86.60;;;;;;7362782;32;20510;-64
2022/05/25 16:58:37;;;;;;;4.75;1.30;;;18.30;87.40;;;;;;7357395;32;20994;-64
2022/05/25 17:02:39;;;;;;;1.80;0.90;;;18.20;87.50;;;;;;7362152;32;20106;-63
2022/05/25 17:06:41;;;;;;;2.72;0.80;;;18.10;88.10;;;;;;7362072;32;20107;-64
2022/05/25 17:10:43;;;;;;;4.45;0.90;;;18.00;90.00;;;;;;7352710;32;20125;-65
2022/05/25 17:14:44;;;;;;;2.80;0.80;;;18.00;89.70;;;;;;7361920;32;20125;-63
2022/05/25 17:23:16;;;;;;;3.37;0.80;;;17.90;91.20;;;;;;7339544;32;20512;-65
2022/05/25 17:27:24;;;;;;;2.92;0.90;;;17.90;90.40;;;;;;7358362;32;20181;-65
2022/05/25 17:31:25;;;;;;;3.80;0.95;;;17.90;90.60;;;;;;7344673;32;20193;-67
2022/05/25 17:35:27;;;;;;;4.25;0.65;;;17.80;90.90;;;;;;7350793;32;20132;-63
2022/05/25 17:43:50;;;;;;;4.45;0.90;;;17.70;92.00;;;;;;7361861;32;20231;-68
2022/05/25 17:47:52;;;;;;;2.95;0.80;;;17.60;91.50;;;;;;7357377;32;20862;-69
2022/05/25 17:51:57;;;;;;;2.00;0.70;;;17.50;93.10;;;;;;7356384;32;20213;-68
2022/05/25 17:55:58;;;;;;;5.70;0.60;;;17.60;92.40;;;;;;7368362;32;20888;-66
2022/05/25 18:00:00;;;;;;;3.78;0.50;;;17.60;92.70;;;;;;7356614;32;20386;-65
2022/05/25 18:04:03;;;;;;;2.05;0.60;;;17.50;92.40;;;;;;7368209;32;20107;-66
2022/05/25 18:08:05;;;;;;;3.28;0.68;;;17.40;92.00;;;;;;7359196;32;20186;-66
2022/05/25 18:12:10;;;;;;;5.25;0.65;;;17.40;92.10;;;;;;7354937;32;20541;-65
2022/05/25 18:16:12;;;;;;;2.15;0.70;;;17.40;93.10;;;;;;7362566;32;20519;-66
2022/05/25 18:20:14;;;;;;;4.20;0.93;;;17.30;93.60;;;;;;7367422;32;20291;-66
2022/05/25 18:24:17;;;;;;;2.17;0.52;;;17.20;92.80;;;;;;7372936;32;20125;-65
2022/05/25 18:28:19;;;;;;;2.75;0.85;;;17.20;92.90;;;;;;7363124;32;20117;-66
2022/05/25 18:32:21;;;;;;;2.60;0.90;;;17.20;93.10;;;;;;7350444;32;20210;-66
2022/05/25 18:36:24;;;;;;;3.03;0.80;;;17.20;94.80;;;;;;7349123;32;20145;-66
2022/05/25 18:40:28;;;;;;;4.95;0.70;;;17.10;94.20;;;;;;7361825;32;20229;-66
2022/05/25 18:44:30;;;;;;;3.70;0.77;;;17.20;94.00;;;;;;7363607;32;20175;-68
2022/05/25 18:48:32;;;;;;;2.83;0.70;;;17.10;95.00;;;;;;7368732;32;20247;-69
2022/05/25 18:52:33;;;;;;;7.62;0.90;;;17.00;95.60;;;;;;7361055;32;20108;-66
2022/05/25 18:56:36;;;;;;;2.75;0.80;;;16.90;95.40;;;;;;7359654;32;20123;-67
2022/05/25 19:00:40;;;;;;;1.70;0.70;;;16.90;95.10;;;;;;7357753;32;20165;-69
2022/05/25 19:04:41;;;;;;;3.10;0.60;;;16.90;96.00;;;;;;7370233;32;20281;-69
2022/05/25 19:08:43;;;;;;;2.87;1.20;;;16.90;96.70;;;;;;7369208;32;20138;-68
2022/05/25 19:12:45;;;;;;;2.45;0.80;;;16.80;96.70;;;;;;7356718;32;20122;-68
2022/05/25 19:16:47;;;;;;;2.53;0.90;;;16.70;98.30;;;;;;7362562;32;20192;-66
2022/05/25 19:20:50;;;;;;;5.05;0.85;;;16.80;98.00;;;;;;7347928;32;20198;-68
2022/05/25 19:24:57;;;;;;;3.70;1.00;;;16.70;98.40;;;;;;7365979;32;20563;-68
2022/05/25 19:28:59;;;;;;;2.00;0.93;;;16.70;98.60;;;;;;7349398;32;20613;-68
2022/05/25 19:33:02;;;;;;;3.00;1.10;;;16.70;99.10;;;;;;7351945;32;20245;-68
2022/05/25 19:37:05;;;;;;;2.35;0.98;;;16.60;99.90;;;;;;7356417;32;20140;-67
2022/05/25 19:41:07;;;;;;;2.60;0.85;;;16.60;99.90;;;;;;7369646;32;20129;-68
2022/05/25 19:45:14;;;;;;;3.47;0.90;;;16.60;99.90;;;;;;7358494;32;20138;-63
2022/05/25 19:50:48;;;;;;;2.60;0.98;;;16.60;99.90;;;;;;7363840;32;20186;-65
2022/05/25 19:53:40;;;;;;;4.37;0.80;;;16.60;99.90;;;;;;7361287;32;21108;-63
2022/05/25 19:57:43;;;;;;;3.37;0.80;;;16.60;99.90;;;;;;7366884;32;20448;-64
2022/05/25 20:01:44;;;;;;;4.00;0.80;;;16.60;99.90;;;;;;7367217;32;20198;-65
2022/05/25 20:05:51;;;;;;;3.33;0.93;;;16.50;99.90;;;;;;7368840;32;20103;-64
2022/05/25 20:09:57;;;;;;;4.18;0.90;;;16.40;99.90;;;;;;7368444;32;20129;-64
2022/05/25 20:13:59;;;;;;;1.87;1.00;;;16.50;99.90;;;;;;7355777;32;20148;-63
2022/05/25 20:18:08;;;;;;;3.60;1.10;;;16.40;99.90;;;;;;7363048;32;20099;-66
2022/05/25 20:22:12;;;;;;;;;;;16.50;99.90;;;;;;7356487;32;20448;-65
2022/05/25 20:26:29;;;;;;;6.95;0.90;;;16.50;99.90;;;;;;7371474;32;20020;-64
2022/05/25 20:30:32;;;;;;;1.67;1.00;;;16.40;99.90;;;;;;7359845;32;20522;-66
2022/05/25 20:34:35;;;;;;;5.32;1.00;;;16.40;99.90;;;;;;7349474;32;20173;-63
2022/05/25 20:38:37;;;;;;;3.60;0.80;;;16.40;99.90;;;;;;7352573;32;20134;-65
2022/05/25 20:42:38;;;;;;;3.08;0.80;;;16.50;99.90;;;;;;7361251;32;20153;-64
2022/05/25 20:46:40;;;;;;;2.80;1.05;;;16.30;99.90;;;;;;7359646;32;20467;-63
2022/05/25 20:50:42;;;;;;;4.57;0.80;;;16.40;99.90;;;;;;7366419;32;20141;-63
2022/05/25 20:54:44;;;;;;;3.58;0.85;;;16.30;99.90;;;;;;7367382;32;20145;-63
2022/05/25 20:58:46;;;;;;;4.10;0.77;;;16.30;99.90;;;;;;7363200;32;20107;-64
2022/05/25 21:02:48;;;;;;;3.05;0.98;;;16.30;99.90;;;;;;7343625;32;20133;-62
2022/05/25 21:06:50;;;;;;;3.25;0.80;;;16.30;99.90;;;;;;7363899;32;20223;-63
2022/05/25 21:10:52;;;;;;;2.42;0.70;;;16.30;99.90;;;;;;7347766;32;20137;-63
2022/05/25 21:14:54;;;;;;;1.35;0.70;;;16.20;99.90;;;;;;7363822;32;20594;-63
2022/05/25 21:18:56;;;;;;;2.03;0.80;;;16.20;99.90;;;;;;7361491;32;20212;-62
2022/05/25 21:23:01;;;;;;;3.40;0.80;;;16.30;99.90;;;;;;7367259;32;20696;-62
2022/05/25 21:27:03;;;;;;;3.28;1.02;;;16.20;99.90;;;;;;7371552;32;20559;-62
2022/05/25 21:35:25;;;;;;;2.80;0.82;;;16.10;99.90;;;;;;7359126;32;20227;-63
2022/05/25 21:39:26;;;;;;;2.60;0.70;;;16.20;99.90;;;;;;7358811;32;20119;-61
2022/05/25 21:43:28;;;;;;;2.58;0.85;;;16.20;99.90;;;;;;7361687;32;20234;-63
2022/05/25 21:51:51;;;;;;;2.85;0.90;;;16.20;99.90;;;;;;7364363;32;20145;-63
2022/05/25 21:55:53;;;;;;;4.05;0.90;;;16.10;99.90;;;;;;7364416;32;20240;-62
2022/05/25 21:59:55;;;;;;;3.55;0.80;;;16.10;99.90;;;;;;7369531;32;20728;-61
2022/05/25 22:03:56;;;;;;;2.70;0.90;;;16.00;99.90;;;;;;7371799;32;20141;-61
2022/05/25 22:07:58;;;;;;;4.50;1.08;;;16.00;99.90;;;;;;7355199;32;20124;-61
2022/05/25 22:12:00;;;;;;;4.45;1.02;;;16.00;99.90;;;;;;7359154;32;22110;-60
2022/05/25 22:16:02;;;;;;;2.28;1.08;;;16.00;99.90;;;;;;7365358;32;20126;-61
2022/05/25 22:20:04;;;;;;;4.30;1.00;;;15.90;99.90;;;;;;7371625;32;20164;-62
2022/05/25 22:24:06;;;;;;;1.90;0.80;;;15.90;99.90;;;;;;7356396;32;20122;-61
2022/05/25 22:28:08;;;;;;;4.20;0.80;;;15.90;99.90;;;;;;7356628;32;20703;-61
2022/05/25 22:32:10;;;;;;;3.15;1.00;;;15.90;99.90;;;;;;7358959;32;20115;-61